sensor_id;sensor_type;location;lat;lon;timestamp;pressure;altitude;pressure_sealevel;temperature;humidity
33265;BME280;31404;53.974;-1.086;2022-12-11T00:00:36;100928.11;;;3.52;85.27
33265;BME280;31404;53.974;-1.086;2022-12-11T00:05:38;100927.64;;;4.93;79.06
33265;BME280;31404;53.974;-1.086;2022-12-11T00:10:36;100936.45;;;3.42;81.58
33265;BME280;31404;53.974;-1.086;2022-12-11T00:15:37;100934.77;;;4.63;78.86
33265;BME280;31404;53.974;-1.086;2022-12-11T00:20:34;100932.37;;;5.34;76.45
33265;BME280;31404;53.974;-1.086;2022-12-11T00:40:35;100907.98;;;4.81;77.32
33265;BME280;31404;53.974;-1.086;2022-12-11T00:45:36;100908.06;;;4.88;76.72
33265;BME280;31404;53.974;-1.086;2022-12-11T00:50:36;100902.91;;;4.94;76.73
33265;BME280;31404;53.974;-1.086;2022-12-11T00:55:36;100900.52;;;4.77;77.03
33265;BME280;31404;53.974;-1.086;2022-12-11T01:00:35;100905.79;;;4.13;77.41
33265;BME280;31404;53.974;-1.086;2022-12-11T01:05:35;100905.85;;;4.23;79.27
33265;BME280;31404;53.974;-1.086;2022-12-11T01:10:35;100907.25;;;5.10;76.18
33265;BME280;31404;53.974;-1.086;2022-12-11T01:20:37;100903.12;;;3.37;81.97
33265;BME280;31404;53.974;-1.086;2022-12-11T01:25:36;100892.18;;;4.17;79.69
33265;BME280;31404;53.974;-1.086;2022-12-11T01:30:36;100894.95;;;4.37;78.62
33265;BME280;31404;53.974;-1.086;2022-12-11T01:35:37;100891.45;;;3.79;78.96
33265;BME280;31404;53.974;-1.086;2022-12-11T01:40:34;100897.89;;;4.61;77.23
33265;BME280;31404;53.974;-1.086;2022-12-11T01:45:39;100901.28;;;4.75;76.12
33265;BME280;31404;53.974;-1.086;2022-12-11T01:55:37;100899.69;;;3.34;81.17
33265;BME280;31404;53.974;-1.086;2022-12-11T02:00:35;100898.66;;;3.47;80.55
33265;BME280;31404;53.974;-1.086;2022-12-11T02:05:36;100898.80;;;3.81;77.84
33265;BME280;31404;53.974;-1.086;2022-12-11T02:15:40;100904.66;;;3.52;78.60
33265;BME280;31404;53.974;-1.086;2022-12-11T02:20:37;100905.67;;;3.88;77.59
33265;BME280;31404;53.974;-1.086;2022-12-11T02:30:42;100913.53;;;4.08;75.37
33265;BME280;31404;53.974;-1.086;2022-12-11T02:35:38;100912.60;;;3.77;76.09
33265;BME280;31404;53.974;-1.086;2022-12-11T02:45:36;100920.36;;;0.09;93.32
33265;BME280;31404;53.974;-1.086;2022-12-11T02:50:38;100913.93;;;0.46;91.84
33265;BME280;31404;53.974;-1.086;2022-12-11T02:55:36;100907.40;;;0.17;93.25
33265;BME280;31404;53.974;-1.086;2022-12-11T03:05:36;100899.65;;;1.85;84.79
33265;BME280;31404;53.974;-1.086;2022-12-11T03:10:35;100897.33;;;1.43;84.64
33265;BME280;31404;53.974;-1.086;2022-12-11T03:20:40;100886.31;;;0.15;89.66
33265;BME280;31404;53.974;-1.086;2022-12-11T03:30:36;100877.25;;;1.24;86.64
33265;BME280;31404;53.974;-1.086;2022-12-11T03:35:37;100875.42;;;0.03;91.67
33265;BME280;31404;53.974;-1.086;2022-12-11T03:40:37;100884.39;;;-1.09;95.40
33265;BME280;31404;53.974;-1.086;2022-12-11T03:45:37;100887.10;;;-1.40;93.58
33265;BME280;31404;53.974;-1.086;2022-12-11T03:50:36;100883.98;;;-0.00;91.33
33265;BME280;31404;53.974;-1.086;2022-12-11T03:55:36;100884.98;;;-1.66;93.57
33265;BME280;31404;53.974;-1.086;2022-12-11T04:00:36;100880.90;;;-0.57;92.65
33265;BME280;31404;53.974;-1.086;2022-12-11T04:05:35;100874.44;;;0.20;88.83
33265;BME280;31404;53.974;-1.086;2022-12-11T04:10:36;100870.80;;;-0.87;91.15
33265;BME280;31404;53.974;-1.086;2022-12-11T04:15:36;100868.49;;;1.36;83.44
33265;BME280;31404;53.974;-1.086;2022-12-11T04:20:35;100863.42;;;0.17;85.01
33265;BME280;31404;53.974;-1.086;2022-12-11T04:25:36;100867.53;;;-0.48;87.42
33265;BME280;31404;53.974;-1.086;2022-12-11T04:30:35;100870.20;;;-1.44;91.52
33265;BME280;31404;53.974;-1.086;2022-12-11T04:35:36;100870.90;;;-0.31;89.00
33265;BME280;31404;53.974;-1.086;2022-12-11T04:40:34;100880.18;;;-0.65;88.17
33265;BME280;31404;53.974;-1.086;2022-12-11T04:45:35;100875.15;;;-0.68;88.27
33265;BME280;31404;53.974;-1.086;2022-12-11T04:50:35;100869.26;;;-1.10;88.67
33265;BME280;31404;53.974;-1.086;2022-12-11T04:55:35;100870.14;;;-1.75;90.81
33265;BME280;31404;53.974;-1.086;2022-12-11T05:00:35;100877.23;;;-3.10;96.86
33265;BME280;31404;53.974;-1.086;2022-12-11T05:05:35;100879.22;;;-2.59;98.82
33265;BME280;31404;53.974;-1.086;2022-12-11T05:10:35;100881.96;;;-2.52;100.00
33265;BME280;31404;53.974;-1.086;2022-12-11T05:15:37;100877.73;;;-2.54;97.91
33265;BME280;31404;53.974;-1.086;2022-12-11T05:20:35;100873.94;;;-3.74;100.00
33265;BME280;31404;53.974;-1.086;2022-12-11T05:25:36;100873.65;;;-1.13;98.00
33265;BME280;31404;53.974;-1.086;2022-12-11T05:30:35;100870.07;;;-0.86;92.08
33265;BME280;31404;53.974;-1.086;2022-12-11T05:40:37;100870.66;;;-0.26;89.48
33265;BME280;31404;53.974;-1.086;2022-12-11T05:45:35;100868.25;;;0.25;88.10
33265;BME280;31404;53.974;-1.086;2022-12-11T05:50:35;100872.38;;;-1.68;94.42
33265;BME280;31404;53.974;-1.086;2022-12-11T05:55:34;100873.56;;;-2.11;97.39
33265;BME280;31404;53.974;-1.086;2022-12-11T06:00:36;100869.15;;;-3.17;100.00
33265;BME280;31404;53.974;-1.086;2022-12-11T06:05:37;100861.10;;;-0.65;95.95
33265;BME280;31404;53.974;-1.086;2022-12-11T06:15:35;100858.82;;;0.56;88.86
33265;BME280;31404;53.974;-1.086;2022-12-11T06:20:35;100856.25;;;-0.40;91.35
33265;BME280;31404;53.974;-1.086;2022-12-11T06:25:37;100852.94;;;-0.71;93.68
33265;BME280;31404;53.974;-1.086;2022-12-11T06:30:35;100854.75;;;0.33;89.69
33265;BME280;31404;53.974;-1.086;2022-12-11T06:35:35;100848.60;;;0.59;86.78
33265;BME280;31404;53.974;-1.086;2022-12-11T06:40:35;100858.01;;;-0.71;91.35
33265;BME280;31404;53.974;-1.086;2022-12-11T06:45:36;100848.65;;;0.22;89.25
33265;BME280;31404;53.974;-1.086;2022-12-11T06:50:37;100847.40;;;-0.10;90.52
33265;BME280;31404;53.974;-1.086;2022-12-11T07:00:35;100844.31;;;0.85;85.42
33265;BME280;31404;53.974;-1.086;2022-12-11T07:05:35;100846.63;;;-0.20;89.34
33265;BME280;31404;53.974;-1.086;2022-12-11T07:10:36;100850.53;;;-1.42;97.15
33265;BME280;31404;53.974;-1.086;2022-12-11T07:15:36;100852.07;;;-0.46;91.14
33265;BME280;31404;53.974;-1.086;2022-12-11T07:20:35;100847.93;;;1.90;83.68
33265;BME280;31404;53.974;-1.086;2022-12-11T07:25:36;100862.12;;;-0.20;90.20
33265;BME280;31404;53.974;-1.086;2022-12-11T07:30:40;100862.58;;;1.39;86.07
33265;BME280;31404;53.974;-1.086;2022-12-11T07:35:36;100863.08;;;0.89;84.04
33265;BME280;31404;53.974;-1.086;2022-12-11T07:40:35;100866.12;;;0.08;87.81
33265;BME280;31404;53.974;-1.086;2022-12-11T07:45:34;100867.01;;;2.23;82.18
33265;BME280;31404;53.974;-1.086;2022-12-11T07:50:35;100868.47;;;1.47;82.54
33265;BME280;31404;53.974;-1.086;2022-12-11T07:55:35;100866.11;;;0.82;85.47
33265;BME280;31404;53.974;-1.086;2022-12-11T08:00:35;100867.72;;;1.88;83.71
33265;BME280;31404;53.974;-1.086;2022-12-11T08:05:35;100859.42;;;2.22;79.77
33265;BME280;31404;53.974;-1.086;2022-12-11T08:10:34;100852.57;;;2.51;79.03
33265;BME280;31404;53.974;-1.086;2022-12-11T08:15:35;100854.29;;;2.41;78.97
33265;BME280;31404;53.974;-1.086;2022-12-11T08:20:36;100852.52;;;1.71;80.14
33265;BME280;31404;53.974;-1.086;2022-12-11T08:25:36;100849.83;;;2.31;78.76
33265;BME280;31404;53.974;-1.086;2022-12-11T08:30:37;100856.01;;;0.73;82.90
33265;BME280;31404;53.974;-1.086;2022-12-11T08:35:38;100858.07;;;2.48;78.89
33265;BME280;31404;53.974;-1.086;2022-12-11T08:40:35;100858.88;;;2.63;77.13
33265;BME280;31404;53.974;-1.086;2022-12-11T08:45:35;100851.45;;;2.32;77.23
33265;BME280;31404;53.974;-1.086;2022-12-11T08:50:35;100853.31;;;1.89;79.31
33265;BME280;31404;53.974;-1.086;2022-12-11T08:55:35;100854.99;;;1.92;77.01
33265;BME280;31404;53.974;-1.086;2022-12-11T09:00:36;100864.16;;;3.18;74.21
33265;BME280;31404;53.974;-1.086;2022-12-11T09:05:37;100868.75;;;2.05;78.18
33265;BME280;31404;53.974;-1.086;2022-12-11T09:10:35;100874.05;;;1.60;78.98
33265;BME280;31404;53.974;-1.086;2022-12-11T09:20:35;100871.70;;;0.31;84.39
33265;BME280;31404;53.974;-1.086;2022-12-11T09:30:34;100867.50;;;2.52;77.51
33265;BME280;31404;53.974;-1.086;2022-12-11T09:45:34;100876.21;;;2.18;79.46
33265;BME280;31404;53.974;-1.086;2022-12-11T09:50:36;100876.60;;;2.55;78.93
33265;BME280;31404;53.974;-1.086;2022-12-11T10:00:38;100877.09;;;3.38;74.29
33265;BME280;31404;53.974;-1.086;2022-12-11T10:20:36;100866.39;;;3.34;74.07
33265;BME280;31404;53.974;-1.086;2022-12-11T10:25:36;100868.01;;;2.47;74.88
33265;BME280;31404;53.974;-1.086;2022-12-11T10:30:36;100874.41;;;1.48;80.82
33265;BME280;31404;53.974;-1.086;2022-12-11T10:35:38;100868.79;;;3.35;75.66
33265;BME280;31404;53.974;-1.086;2022-12-11T10:40:38;100864.91;;;3.68;74.24
33265;BME280;31404;53.974;-1.086;2022-12-11T10:45:35;100868.42;;;1.15;83.39
33265;BME280;31404;53.974;-1.086;2022-12-11T10:50:37;100849.10;;;3.51;75.35
33265;BME280;31404;53.974;-1.086;2022-12-11T11:00:36;100839.39;;;2.43;78.40
33265;BME280;31404;53.974;-1.086;2022-12-11T11:05:36;100830.97;;;2.82;78.09
33265;BME280;31404;53.974;-1.086;2022-12-11T11:10:34;100829.25;;;2.79;77.85
33265;BME280;31404;53.974;-1.086;2022-12-11T11:15:35;100824.82;;;1.95;80.82
33265;BME280;31404;53.974;-1.086;2022-12-11T11:20:35;100829.61;;;1.28;84.54
33265;BME280;31404;53.974;-1.086;2022-12-11T11:25:35;100833.69;;;1.19;86.61
33265;BME280;31404;53.974;-1.086;2022-12-11T11:30:38;100833.24;;;1.62;84.37
33265;BME280;31404;53.974;-1.086;2022-12-11T11:35:36;100831.48;;;1.77;85.82
33265;BME280;31404;53.974;-1.086;2022-12-11T11:50:35;100821.50;;;2.55;82.38
33265;BME280;31404;53.974;-1.086;2022-12-11T11:55:41;100816.59;;;1.84;83.86
33265;BME280;31404;53.974;-1.086;2022-12-11T12:00:35;100812.66;;;3.22;80.52
33265;BME280;31404;53.974;-1.086;2022-12-11T12:20:39;100799.85;;;1.13;91.47
33265;BME280;31404;53.974;-1.086;2022-12-11T12:25:39;100795.08;;;1.16;92.05
33265;BME280;31404;53.974;-1.086;2022-12-11T12:30:41;100798.35;;;0.04;95.92
33265;BME280;31404;53.974;-1.086;2022-12-11T12:35:37;100798.51;;;0.24;97.58
33265;BME280;31404;53.974;-1.086;2022-12-11T12:50:39;100782.43;;;0.55;95.34
33265;BME280;31404;53.974;-1.086;2022-12-11T12:55:36;100781.26;;;0.54;94.89
33265;BME280;31404;53.974;-1.086;2022-12-11T13:00:36;100780.64;;;0.88;93.55
33265;BME280;31404;53.974;-1.086;2022-12-11T13:05:35;100785.41;;;0.74;95.97
33265;BME280;31404;53.974;-1.086;2022-12-11T13:10:36;100777.50;;;1.71;91.27
33265;BME280;31404;53.974;-1.086;2022-12-11T13:15:38;100779.79;;;1.05;93.09
33265;BME280;31404;53.974;-1.086;2022-12-11T13:30:35;100774.90;;;1.72;89.77
33265;BME280;31404;53.974;-1.086;2022-12-11T13:35:35;100777.84;;;1.80;88.32
33265;BME280;31404;53.974;-1.086;2022-12-11T13:40:39;100784.36;;;0.90;92.94
33265;BME280;31404;53.974;-1.086;2022-12-11T13:45:39;100782.57;;;0.27;96.17
33265;BME280;31404;53.974;-1.086;2022-12-11T13:50:31;100785.58;;;-0.26;98.15
33265;BME280;31404;53.974;-1.086;2022-12-11T13:55:36;100786.94;;;0.27;96.05
33265;BME280;31404;53.974;-1.086;2022-12-11T14:00:35;100787.31;;;0.96;91.42
33265;BME280;31404;53.974;-1.086;2022-12-11T14:05:36;100778.76;;;1.45;87.29
33265;BME280;31404;53.974;-1.086;2022-12-11T14:10:34;100776.06;;;1.56;86.02
33265;BME280;31404;53.974;-1.086;2022-12-11T14:15:41;100782.44;;;1.87;85.25
33265;BME280;31404;53.974;-1.086;2022-12-11T14:20:35;100785.34;;;2.37;83.09
33265;BME280;31404;53.974;-1.086;2022-12-11T14:25:36;100788.99;;;2.27;81.85
33265;BME280;31404;53.974;-1.086;2022-12-11T14:30:35;100793.19;;;2.16;81.02
33265;BME280;31404;53.974;-1.086;2022-12-11T14:45:37;100790.47;;;2.56;82.06
33265;BME280;31404;53.974;-1.086;2022-12-11T14:50:38;100788.36;;;3.09;79.74
33265;BME280;31404;53.974;-1.086;2022-12-11T14:55:36;100793.70;;;2.74;79.66
33265;BME280;31404;53.974;-1.086;2022-12-11T15:00:37;100797.00;;;2.35;83.54
33265;BME280;31404;53.974;-1.086;2022-12-11T15:05:34;100797.98;;;3.96;77.20
33265;BME280;31404;53.974;-1.086;2022-12-11T15:10:37;100795.96;;;4.63;73.89
33265;BME280;31404;53.974;-1.086;2022-12-11T15:20:35;100790.59;;;3.34;76.90
33265;BME280;31404;53.974;-1.086;2022-12-11T15:25:36;100795.76;;;2.73;79.94
33265;BME280;31404;53.974;-1.086;2022-12-11T15:30:35;100804.32;;;2.03;81.84
33265;BME280;31404;53.974;-1.086;2022-12-11T15:35:36;100805.55;;;1.84;83.83
33265;BME280;31404;53.974;-1.086;2022-12-11T15:40:34;100809.28;;;1.74;84.32
33265;BME280;31404;53.974;-1.086;2022-12-11T15:45:35;100815.53;;;3.07;78.85
33265;BME280;31404;53.974;-1.086;2022-12-11T15:50:36;100813.96;;;3.08;78.16
33265;BME280;31404;53.974;-1.086;2022-12-11T15:55:36;100815.21;;;3.49;77.03
33265;BME280;31404;53.974;-1.086;2022-12-11T16:00:35;100821.35;;;2.95;76.26
33265;BME280;31404;53.974;-1.086;2022-12-11T16:05:35;100823.89;;;3.51;75.92
33265;BME280;31404;53.974;-1.086;2022-12-11T16:10:35;100828.61;;;2.58;81.77
33265;BME280;31404;53.974;-1.086;2022-12-11T16:15:36;100822.92;;;3.61;76.30
33265;BME280;31404;53.974;-1.086;2022-12-11T16:20:37;100818.49;;;2.71;77.90
33265;BME280;31404;53.974;-1.086;2022-12-11T16:25:37;100809.76;;;3.88;75.41
33265;BME280;31404;53.974;-1.086;2022-12-11T16:30:36;100807.38;;;3.84;75.38
33265;BME280;31404;53.974;-1.086;2022-12-11T16:35:36;100800.73;;;3.14;78.26
33265;BME280;31404;53.974;-1.086;2022-12-11T16:40:35;100800.93;;;2.52;80.98
33265;BME280;31404;53.974;-1.086;2022-12-11T16:50:34;100795.97;;;3.28;78.42
33265;BME280;31404;53.974;-1.086;2022-12-11T16:55:34;100797.52;;;2.12;82.23
33265;BME280;31404;53.974;-1.086;2022-12-11T17:00:35;100801.23;;;3.45;79.23
33265;BME280;31404;53.974;-1.086;2022-12-11T17:10:39;100805.66;;;3.23;78.11
33265;BME280;31404;53.974;-1.086;2022-12-11T17:35:35;100813.61;;;0.61;93.34
33265;BME280;31404;53.974;-1.086;2022-12-11T17:55:37;100806.57;;;1.63;87.69
33265;BME280;31404;53.974;-1.086;2022-12-11T18:10:36;100812.84;;;1.47;87.38
33265;BME280;31404;53.974;-1.086;2022-12-11T18:15:34;100805.98;;;1.84;87.26
33265;BME280;31404;53.974;-1.086;2022-12-11T18:20:36;100803.31;;;2.59;83.70
33265;BME280;31404;53.974;-1.086;2022-12-11T18:25:34;100810.42;;;1.53;84.57
33265;BME280;31404;53.974;-1.086;2022-12-11T18:30:35;100797.88;;;2.20;81.93
33265;BME280;31404;53.974;-1.086;2022-12-11T18:35:35;100802.87;;;0.57;91.09
33265;BME280;31404;53.974;-1.086;2022-12-11T18:40:36;100806.68;;;1.03;89.83
33265;BME280;31404;53.974;-1.086;2022-12-11T18:50:35;100801.27;;;-0.11;94.28
33265;BME280;31404;53.974;-1.086;2022-12-11T18:55:39;100798.29;;;0.30;93.74
33265;BME280;31404;53.974;-1.086;2022-12-11T19:00:36;100791.63;;;1.73;88.92
33265;BME280;31404;53.974;-1.086;2022-12-11T19:15:37;100807.21;;;-0.87;100.00
33265;BME280;31404;53.974;-1.086;2022-12-11T19:20:37;100804.84;;;0.91;91.82
33265;BME280;31404;53.974;-1.086;2022-12-11T19:30:35;100800.98;;;1.44;88.86
33265;BME280;31404;53.974;-1.086;2022-12-11T19:35:35;100813.44;;;1.12;87.23
33265;BME280;31404;53.974;-1.086;2022-12-11T19:45:36;100822.79;;;1.14;90.90
33265;BME280;31404;53.974;-1.086;2022-12-11T19:50:36;100821.31;;;1.91;87.35
33265;BME280;31404;53.974;-1.086;2022-12-11T19:55:36;100826.99;;;0.40;94.59
33265;BME280;31404;53.974;-1.086;2022-12-11T20:00:36;100827.01;;;0.49;93.88
33265;BME280;31404;53.974;-1.086;2022-12-11T20:05:35;100830.46;;;1.27;89.22
33265;BME280;31404;53.974;-1.086;2022-12-11T20:10:36;100829.54;;;2.68;81.74
33265;BME280;31404;53.974;-1.086;2022-12-11T20:15:38;100837.73;;;0.02;92.87
33265;BME280;31404;53.974;-1.086;2022-12-11T20:20:36;100841.53;;;0.07;96.89
33265;BME280;31404;53.974;-1.086;2022-12-11T20:25:38;100842.80;;;1.03;92.26
33265;BME280;31404;53.974;-1.086;2022-12-11T20:35:36;100837.89;;;-0.05;100.00
33265;BME280;31404;53.974;-1.086;2022-12-11T20:40:36;100844.34;;;-0.02;97.24
33265;BME280;31404;53.974;-1.086;2022-12-11T20:45:35;100840.93;;;0.13;98.42
33265;BME280;31404;53.974;-1.086;2022-12-11T20:50:36;100847.09;;;0.43;94.71
33265;BME280;31404;53.974;-1.086;2022-12-11T21:00:35;100850.79;;;1.92;92.39
33265;BME280;31404;53.974;-1.086;2022-12-11T21:10:35;100856.47;;;2.69;84.59
33265;BME280;31404;53.974;-1.086;2022-12-11T21:15:36;100860.31;;;0.80;90.25
33265;BME280;31404;53.974;-1.086;2022-12-11T21:20:35;100859.80;;;0.98;92.14
33265;BME280;31404;53.974;-1.086;2022-12-11T21:25:38;100858.87;;;0.63;93.77
33265;BME280;31404;53.974;-1.086;2022-12-11T21:30:37;100859.16;;;1.11;90.88
33265;BME280;31404;53.974;-1.086;2022-12-11T21:35:35;100847.80;;;2.86;85.05
33265;BME280;31404;53.974;-1.086;2022-12-11T21:45:36;100858.41;;;2.68;83.92
33265;BME280;31404;53.974;-1.086;2022-12-11T21:50:34;100857.98;;;2.98;82.06
33265;BME280;31404;53.974;-1.086;2022-12-11T21:55:37;100853.96;;;3.26;81.58
33265;BME280;31404;53.974;-1.086;2022-12-11T22:00:36;100852.05;;;3.70;79.16
33265;BME280;31404;53.974;-1.086;2022-12-11T22:05:35;100857.23;;;2.13;85.16
33265;BME280;31404;53.974;-1.086;2022-12-11T22:10:35;100862.37;;;2.57;84.87
33265;BME280;31404;53.974;-1.086;2022-12-11T22:15:34;100864.72;;;2.51;84.26
33265;BME280;31404;53.974;-1.086;2022-12-11T22:20:35;100868.44;;;3.67;81.14
33265;BME280;31404;53.974;-1.086;2022-12-11T22:25:36;100867.69;;;4.55;77.75
33265;BME280;31404;53.974;-1.086;2022-12-11T22:30:36;100871.42;;;5.09;75.48
33265;BME280;31404;53.974;-1.086;2022-12-11T22:35:36;100873.43;;;3.75;76.75
33265;BME280;31404;53.974;-1.086;2022-12-11T22:50:36;100869.86;;;3.49;79.20
33265;BME280;31404;53.974;-1.086;2022-12-11T22:55:37;100867.52;;;4.46;76.64
33265;BME280;31404;53.974;-1.086;2022-12-11T23:00:35;100866.83;;;3.82;78.30
33265;BME280;31404;53.974;-1.086;2022-12-11T23:10:37;100865.72;;;4.02;77.79
33265;BME280;31404;53.974;-1.086;2022-12-11T23:15:34;100863.65;;;4.01;77.55
33265;BME280;31404;53.974;-1.086;2022-12-11T23:20:35;100859.06;;;3.81;78.58
33265;BME280;31404;53.974;-1.086;2022-12-11T23:25:37;100865.59;;;3.72;77.52
33265;BME280;31404;53.974;-1.086;2022-12-11T23:30:35;100867.68;;;4.34;75.91
33265;BME280;31404;53.974;-1.086;2022-12-11T23:35:35;100870.50;;;3.55;77.94
33265;BME280;31404;53.974;-1.086;2022-12-11T23:40:36;100872.55;;;3.38;80.82
33265;BME280;31404;53.974;-1.086;2022-12-11T23:45:34;100867.58;;;2.69;83.17
33265;BME280;31404;53.974;-1.086;2022-12-11T23:50:34;100872.35;;;3.16;81.30
33265;BME280;31404;53.974;-1.086;2022-12-11T23:55:36;100869.96;;;3.42;79.81
